Skip to main content.

Nearby METAR Reports

 

KJYR - York, Nebraska, USA
Distance from station: NW 27mi, 43km
Updated: Mon, 23-Sep-2019 12:55am CDT
Clear
Clear
 Wind from calm
Wind: Calm
Temperature: 57°F , 14°C
Dew Point: 55°F , 13°C
Humidity: 94%
Barometer: 30.05 inHg , 1017.6 hPa
Clouds: Clear
Visibility: 10 miles , 16 km
2019/09/23 05:55 KJYR 230555Z AUTO 00000KT 10SM CLR 14/13 A3005 RMK AO2
KLNK - Lincoln, Nebraska, USA
Distance from station: ENE 27mi, 44km
Updated: Mon, 23-Sep-2019 12:54am CDT
Clear
Clear
 Wind from S
Wind: S 3 mph , 6 km/h
Temperature: 55°F , 13°C
Dew Point: 54°F , 12°C
Humidity: 94%
Barometer: 30.04 inHg , 1017.3 hPa
Clouds: Clear
Visibility: 10 miles , 16 km
2019/09/23 05:54 KLNK 230554Z AUTO 17003KT 10SM CLR 13/12 A3004 RMK AO2 SLP167 T01330117 10233 20128 402500128 50008
 
KBIE - Beatrice Municip, Nebraska, USA
Distance from station: SE 36mi, 58km
Updated: Mon, 23-Sep-2019 12:55am CDT
Clear
Clear
 Wind from calm
Wind: Calm
Temperature: 59°F , 15°C
Dew Point: 57°F , 14°C
Humidity: 94%
Barometer: 30.04 inHg , 1017.3 hPa
Clouds: Clear
Visibility: 10 miles , 16 km
2019/09/23 05:55 KBIE 230555Z AUTO 00000KT 10SM CLR 15/14 A3004 RMK AO2 T01480141 10220 20147 402410147
KHJH - Hebron Muni, Nebraska, USA
Distance from station: SSW 40mi, 64km
Updated: Mon, 23-Sep-2019 12:55am CDT
Clear
Clear
 Wind from calm
Wind: Calm
Temperature: 57°F , 14°C
Dew Point: 55°F , 13°C
Humidity: 94%
Barometer: 30.05 inHg , 1017.6 hPa
Clouds: Clear
Visibility: 10 miles , 16 km
2019/09/23 05:55 KHJH 230555Z AUTO 00000KT 10SM CLR 14/13 A3005 RMK AO2 T01350128 10228 20135 402470135
 
KAUH - Aurora, Nebraska, USA
Distance from station: WNW 44mi, 70km
Updated: Mon, 23-Sep-2019 12:55am CDT
Clear
Clear
 Wind from SSE
Wind: SSE 5 mph , 7 km/h
Temperature: 57°F , 14°C
Dew Point: 55°F , 13°C
Humidity: 94%
Barometer: 30.04 inHg , 1017.3 hPa
Clouds: Clear
Visibility: 10 miles , 16 km
2019/09/23 05:55 KAUH 230555Z AUTO 16004KT 10SM CLR 14/13 A3004 RMK AO2 T01410125 10217 20132 402350125
KAHQ - Wahoo, Nebraska, USA
Distance from station: NE 51mi, 82km
Updated: Mon, 23-Sep-2019 12:55am CDT
Clear
Clear
 Wind from calm
Wind: Calm
Temperature: 55°F , 13°C
Dew Point: 55°F , 13°C
Humidity: 100%
Barometer: 30.02 inHg , 1016.6 hPa
Clouds: Clear
Visibility: 10 miles , 16 km
2019/09/23 05:55 KAHQ 230555Z AUTO 00000KT 10SM CLR 13/13 A3002 RMK AO2 T01310129 10210 20129 402360129
 
KOLU - Columbus Muni, Nebraska, USA
Distance from station: N 55mi, 88km
Updated: Mon, 23-Sep-2019 12:56am CDT
Clear
Clear
 Wind from calm
Wind: Calm
Temperature: 55°F , 13°C
Dew Point: 54°F , 12°C
Humidity: 94%
Barometer: 30.03 inHg , 1016.9 hPa
Clouds: Clear
Visibility: 10 miles , 16 km
2019/09/23 05:56 KOLU 230556Z AUTO 00000KT 10SM CLR 13/12 A3003 RMK AO2 SLP168 T01330122 10206 20128 402330128 50004
KGRI - Grand Island, Nebraska, USA
Distance from station: WNW 61mi, 99km
Updated: Mon, 23-Sep-2019 12:53am CDT
Clear
Clear
 Wind from SSE
Wind: SSE 6 mph , 9 km/h
Temperature: 57°F , 14°C
Dew Point: 52°F , 11°C
Humidity: 82%
Barometer: 30.04 inHg , 1017.3 hPa
Clouds: Clear
Visibility: 10 miles , 16 km
2019/09/23 05:53 KGRI 230553Z AUTO 15005KT 10SM CLR 14/11 A3004 RMK AO2 SLP168 T01390111 10222 20133 402390133 50006
 
KHSI - Hastings, Nebraska, USA
Distance from station: W 64mi, 103km
Updated: Mon, 23-Sep-2019 12:53am CDT
Clear
Clear
 Wind from S
Wind: S 3 mph , 6 km/h
Temperature: 61°F , 16°C
Dew Point: 52°F , 11°C
Humidity: 72%
Barometer: 30.06 inHg , 1017.9 hPa
Clouds: Clear
Visibility: 10 miles , 16 km
2019/09/23 05:53 KHSI 230553Z AUTO 19003KT 10SM CLR 16/11 A3006 RMK AO2 SLP169 T01610111 10222 20150 402390133 51008
KFET - Fremont Muni Arp, Nebraska, USA
Distance from station: NNE 66mi, 106km
Updated: Mon, 23-Sep-2019 12:55am CDT
Clear
Clear
 Wind from calm
Wind: Calm
Temperature: 59°F , 15°C
Dew Point: 57°F , 14°C
Humidity: 94%
Barometer: 30.03 inHg , 1016.9 hPa
Clouds: Clear
Visibility: 10 miles , 16 km
2019/09/23 05:55 KFET 230555Z AUTO 00000KT 10SM CLR 15/14 A3003 RMK AO2 T01500143 10215 20147 402450147
 
KMLE - Omaha/Millard, Nebraska, USA
Distance from station: NE 69mi, 110km
Updated: Mon, 23-Sep-2019 12:55am CDT
Clear
Clear
 Wind from calm
Wind: Calm
Temperature: 59°F , 15°C
Dew Point: 57°F , 14°C
Humidity: 94%
Barometer: 30.02 inHg , 1016.6 hPa
Clouds: Clear
Visibility: 10 miles , 16 km
2019/09/23 05:55 KMLE 230555Z AUTO 00000KT 10SM CLR 15/14 A3002 RMK AO2 T01490140 10222 20149 402410149
KPMV - Plattsmouth Muni, Nebraska, USA
Distance from station: ENE 71mi, 114km
Updated: Mon, 23-Sep-2019 12:55am CDT
Clear
Clear
 Wind from calm
Wind: Calm
Temperature: 61°F , 16°C
Dew Point: 57°F , 14°C
Humidity: 88%
Barometer: 30.03 inHg , 1016.9 hPa
Clouds: Clear
Visibility: 10 miles , 16 km
2019/09/23 05:55 KPMV 230555Z AUTO 00000KT 10SM CLR 16/14 A3003 RMK AO2 T01580142 10206 20145 402270143
 
KAFK - Nebraska City, Nebraska, USA
Distance from station: E 72mi, 116km
Updated: Mon, 23-Sep-2019 12:55am CDT
Clear
Clear
 Wind from WSW
Wind: WSW 5 mph , 7 km/h
Temperature: 59°F , 15°C
Dew Point: 59°F , 15°C
Humidity: 100%
Barometer: 30.03 inHg , 1016.9 hPa
Clouds: Clear
Visibility: 10 miles , 16 km
2019/09/23 05:55 KAFK 230555Z AUTO 24004KT 10SM CLR 15/15 A3003 RMK AO2 T01460146 10211 20138 402290138
KOFF - Offutt Afb/Belle, Nebraska, USA
Distance from station: ENE 75mi, 121km
Updated: Mon, 23-Sep-2019 12:56am CDT
Clear
Clear
 Wind from calm
Wind: Calm
Temperature: 61°F , 16°C
Dew Point: 57°F , 14°C
Humidity: 88%
Barometer: 30.06 inHg , 1017.9 hPa
Clouds: Clear
Visibility: 10 miles , 16 km
2019/09/23 05:56 KOFF 230556Z 00000KT 10SM CLR 16/14 A3006 RMK AO2A SLP170 RVRNO $
 
KBTA - Blair Muni, Nebraska, USA
Distance from station: NE 78mi, 125km
Updated: Mon, 23-Sep-2019 12:55am CDT
Clear
Clear
 Wind from calm
Wind: Calm
Temperature: 59°F , 15°C
Dew Point: 55°F , 13°C
Humidity: 88%
Barometer: 30.02 inHg , 1016.6 hPa
Clouds: Clear
Visibility: 10 miles , 16 km
2019/09/23 05:55 KBTA 230555Z AUTO 00000KT 10SM CLR 15/13 A3002 RMK AO2 T01470126 10207 20141 402290141
KCNK - Concordia, Kansas, USA
Distance from station: SSW 80mi, 129km
Updated: Mon, 23-Sep-2019 12:55am CDT
Clear
Clear
 Wind from S
Wind: S 12 mph , 19 km/h
Temperature: 64°F , 18°C
Dew Point: 55°F , 13°C
Humidity: 73%
Barometer: 30.04 inHg , 1017.3 hPa
Clouds: Clear
2019/09/23 05:55 KCNK 230555Z AUTO 19010KT CLR 18/13 A3004 RMK AO2 SLP163 T01780128 10239 20161 402610156 51005 $
 
KOMA - Omaha/Eppley, Nebraska, USA
Distance from station: NE 82mi, 133km
Updated: Mon, 23-Sep-2019 12:52am CDT
Clear
Clear
 Wind from calm
Wind: Calm
Temperature: 61°F , 16°C
Dew Point: 61°F , 16°C
Humidity: 100%
Barometer: 30.01 inHg , 1016.3 hPa
Clouds: Clear
Visibility: 10 miles , 16 km
2019/09/23 05:52 KOMA 230552Z 00000KT 10SM CLR 16/16 A3001 RMK AO2 SLP160 T01610156 10228 20156 402330156 50004
KBVN - Albion Muni, Nebraska, USA
Distance from station: NNW 86mi, 138km
Updated: Mon, 23-Sep-2019 12:55am CDT
Clear
Clear
 Wind from calm
Wind: Calm
Temperature: 52°F , 11°C
Dew Point: 52°F , 11°C
Humidity: 100%
Barometer: 30.03 inHg , 1016.9 hPa
Clouds: Clear
Visibility: 10 miles , 16 km
2019/09/23 05:55 KBVN 230555Z AUTO 00000KT 10SM CLR 11/11 A3003 RMK AO2 T01090105 10203 20107 402260107
 
KCBF - Council Bluffs, Iowa, USA
Distance from station: ENE 87mi, 139km
Updated: Mon, 23-Sep-2019 12:55am CDT
Clear
Clear
 Wind from calm
Wind: Calm
Temperature: 59°F , 15°C
Dew Point: 59°F , 15°C
Humidity: 100%
Barometer: 30.00 inHg , 1015.9 hPa
Clouds: Clear
Visibility: 10 miles , 16 km
2019/09/23 05:55 KCBF 230555Z AUTO 00000KT 10SM CLR 15/15 A3000 RMK AO2
KOFK - Norfolk, Nebraska, USA
Distance from station: N 92mi, 148km
Updated: Mon, 23-Sep-2019 12:56am CDT
Clear
Clear
 Wind from calm
Wind: Calm
Temperature: 52°F , 11°C
Dew Point: 50°F , 10°C
Humidity: 94%
Barometer: 30.02 inHg , 1016.6 hPa
Clouds: Clear
Visibility: 10 miles , 16 km
2019/09/23 05:56 KOFK 230556Z AUTO 00000KT 10SM CLR 11/10 A3002 RMK AO2 SLP162 T01110100 10200 20111 402170111 50004

Metar display script from Saratoga-Weather.org